createdAt,value
2022-08-26T00:05:41.529Z,25.3
2022-08-26T00:11:43.137Z,25.2
2022-08-26T00:17:24.702Z,25.2
2022-08-26T00:23:28.847Z,25.2
2022-08-26T00:29:09.691Z,25.2
2022-08-26T00:35:00.572Z,25.2
2022-08-26T00:40:06.220Z,25.1
2022-08-26T00:45:28.065Z,25.2
2022-08-26T00:51:29.894Z,25.1
2022-08-26T00:57:24.738Z,25.1
2022-08-26T01:03:11.613Z,25.1
2022-08-26T01:08:46.085Z,25.1
2022-08-26T01:14:13.152Z,25.1
2022-08-26T01:20:04.105Z,25.1
2022-08-26T01:25:59.587Z,25.1
2022-08-26T01:31:47.108Z,25.1
2022-08-26T01:37:44.658Z,25.1
2022-08-26T01:43:38.594Z,25.1
2022-08-26T01:49:26.807Z,25.1
2022-08-26T01:55:49.780Z,25.1
2022-08-26T02:01:36.753Z,25.1
2022-08-26T02:07:23.951Z,25
2022-08-26T02:13:19.435Z,25.1
2022-08-26T02:19:05.222Z,25.1
2022-08-26T02:24:48.230Z,25.1
2022-08-26T02:30:24.264Z,25
2022-08-26T02:36:13.542Z,25
2022-08-26T02:42:01.766Z,25
2022-08-26T02:47:57.867Z,24.9
2022-08-26T02:53:44.299Z,24.9
2022-08-26T02:59:09.866Z,24.9
2022-08-26T03:05:18.259Z,24.9
2022-08-26T03:10:49.441Z,24.9
2022-08-26T03:16:48.690Z,24.9
2022-08-26T03:22:15.930Z,24.9
2022-08-26T03:27:59.629Z,24.9
2022-08-26T03:33:50.066Z,24.9
2022-08-26T03:39:35.873Z,24.9
2022-08-26T03:45:00.658Z,24.9
2022-08-26T03:50:45.341Z,24.9
2022-08-26T03:56:42.234Z,24.9
2022-08-26T04:02:28.139Z,24.9
2022-08-26T04:08:10.655Z,24.9
2022-08-26T04:13:56.297Z,24.9
2022-08-26T04:19:26.874Z,24.9
2022-08-26T04:25:12.201Z,24.9
2022-08-26T04:30:54.754Z,24.9
2022-08-26T04:36:58.384Z,24.9
2022-08-26T04:42:30.677Z,24.9
2022-08-26T04:48:20.680Z,24.8
2022-08-26T04:54:06.508Z,24.9
2022-08-26T05:00:12.339Z,24.9
2022-08-26T05:05:53.515Z,24.9
2022-08-26T05:11:19.065Z,24.9
2022-08-26T05:17:09.514Z,24.9
2022-08-26T05:22:59.067Z,24.9
2022-08-26T05:28:41.634Z,24.9
2022-08-26T05:34:14.270Z,24.9
2022-08-26T05:40:07.375Z,24.9
2022-08-26T05:45:46.011Z,24.9
2022-08-26T05:51:32.361Z,24.9
2022-08-26T05:57:19.869Z,24.9
2022-08-26T06:03:16.119Z,24.9
2022-08-26T06:09:03.825Z,24.9
2022-08-26T06:15:31.859Z,24.9
2022-08-26T06:21:15.255Z,24.9
2022-08-26T06:27:09.555Z,24.9
2022-08-26T06:33:05.962Z,24.9
2022-08-26T06:38:53.019Z,24.9
2022-08-26T06:44:37.419Z,24.9
2022-08-26T06:50:24.536Z,24.9
2022-08-26T06:56:08.200Z,25
2022-08-26T07:02:01.098Z,24.9
2022-08-26T07:07:59.424Z,24.9
2022-08-26T07:13:48.306Z,25
2022-08-26T07:20:04.505Z,25
2022-08-26T07:25:53.331Z,25
2022-08-26T07:31:36.061Z,25
2022-08-26T07:37:28.355Z,25
2022-08-26T07:43:25.615Z,25
2022-08-26T07:49:23.875Z,25.1
2022-08-26T07:55:19.667Z,25.1
2022-08-26T08:01:15.462Z,25.1
2022-08-26T08:07:04.962Z,25.1
2022-08-26T08:13:21.452Z,25.1
2022-08-26T08:19:15.657Z,25.1
2022-08-26T08:25:27.111Z,25.1
2022-08-26T08:31:12.873Z,25.1
2022-08-26T08:37:28.005Z,25.1
2022-08-26T08:43:12.881Z,25.1
2022-08-26T08:49:00.980Z,25.1
2022-08-26T08:54:47.655Z,25.1
2022-08-26T09:00:47.117Z,25.1
2022-08-26T09:06:39.100Z,25.1
2022-08-26T09:12:29.552Z,25.2
2022-08-26T09:18:04.548Z,25.1
2022-08-26T09:23:52.741Z,25.2
2022-08-26T09:29:54.069Z,25.2
2022-08-26T09:35:48.706Z,25.2
2022-08-26T09:41:47.682Z,25.2
2022-08-26T09:47:40.075Z,25.2
2022-08-26T09:53:28.629Z,25.2
2022-08-26T09:59:16.635Z,25.3
2022-08-26T10:05:04.448Z,25.2
2022-08-26T10:10:53.591Z,25.2
2022-08-26T10:16:46.137Z,25.2
2022-08-26T10:23:01.089Z,25.3
2022-08-26T10:29:00.590Z,25.3
2022-08-26T10:34:56.216Z,25.3
2022-08-26T10:41:16.904Z,25.3
2022-08-26T10:47:08.272Z,25.3
2022-08-26T10:53:03.600Z,25.3
2022-08-26T10:59:01.165Z,25.3
2022-08-26T11:05:08.705Z,25.3
2022-08-26T11:10:57.948Z,25.3
2022-08-26T11:17:15.920Z,25.3
2022-08-26T11:23:21.169Z,25.3
2022-08-26T11:29:36.585Z,25.3
2022-08-26T11:35:26.166Z,25.3
2022-08-26T11:41:26.945Z,25.3
2022-08-26T11:47:16.161Z,25.3
2022-08-26T11:52:58.572Z,25.3
2022-08-26T11:58:59.827Z,25.3
2022-08-26T12:04:33.975Z,25.3
2022-08-26T12:09:58.803Z,25.4
2022-08-26T12:15:29.511Z,25.3
2022-08-26T12:21:20.548Z,25.3
2022-08-26T12:27:02.468Z,25.3
2022-08-26T12:33:38.785Z,25.3
2022-08-26T12:39:23.997Z,25.3
2022-08-26T12:44:52.925Z,25.4
2022-08-26T12:50:29.322Z,25.4
2022-08-26T12:55:50.889Z,25.4
2022-08-26T13:01:35.950Z,25.4
2022-08-26T13:07:22.697Z,25.4
2022-08-26T13:13:00.877Z,25.4
2022-08-26T13:18:35.840Z,25.4
2022-08-26T13:24:05.852Z,25.4
2022-08-26T13:29:51.327Z,25.5
2022-08-26T13:35:24.457Z,25.4
2022-08-26T13:41:07.782Z,25.4
2022-08-26T13:46:59.433Z,25.4
2022-08-26T13:52:46.751Z,25.5
2022-08-26T13:58:25.478Z,25.4
2022-08-26T14:04:07.579Z,25.4
2022-08-26T14:09:38.278Z,25.4
2022-08-26T14:15:14.941Z,25.5
2022-08-26T14:21:21.928Z,25.4
2022-08-26T14:27:36.323Z,25.5
2022-08-26T14:32:59.310Z,25.4
2022-08-26T14:38:38.947Z,25.4
2022-08-26T14:44:42.893Z,25.5
2022-08-26T14:50:24.037Z,25.5
2022-08-26T14:56:02.189Z,25.6
2022-08-26T15:01:50.701Z,25.5
2022-08-26T15:07:34.839Z,25.6
2022-08-26T15:13:13.885Z,25.5
2022-08-26T15:18:46.770Z,25.4
2022-08-26T15:24:29.181Z,25.5
2022-08-26T15:29:54.416Z,25.5
2022-08-26T15:35:42.992Z,25.6
2022-08-26T15:41:21.304Z,25.5
2022-08-26T15:47:30.802Z,25.5
2022-08-26T15:53:28.662Z,25.5
2022-08-26T15:59:17.977Z,25.5
2022-08-26T16:05:03.760Z,25.5
2022-08-26T16:10:47.860Z,25.6
2022-08-26T16:16:43.321Z,25.6
2022-08-26T16:22:45.036Z,25.5
2022-08-26T16:28:28.187Z,25.5
2022-08-26T16:34:18.512Z,25.5
2022-08-26T16:40:01.503Z,25.5
2022-08-26T16:45:45.170Z,25.5
2022-08-26T16:51:23.996Z,25.6
2022-08-26T16:57:07.248Z,25.5
2022-08-26T17:02:48.037Z,25.5
2022-08-26T17:08:27.545Z,25.5
2022-08-26T17:14:23.908Z,25.5
2022-08-26T17:20:11.795Z,25.5
2022-08-26T17:25:38.260Z,25.4
2022-08-26T17:31:20.858Z,25.4
2022-08-26T17:36:37.226Z,25.4
2022-08-26T17:42:15.199Z,25.4
2022-08-26T17:47:46.842Z,25.4
2022-08-26T17:53:09.929Z,25.4
2022-08-26T17:58:30.736Z,25.4
2022-08-26T18:04:17.549Z,25.4
2022-08-26T18:09:57.650Z,25.4
2022-08-26T18:15:27.190Z,25.3
2022-08-26T18:20:37.133Z,25.3
2022-08-26T18:26:38.776Z,25.3
2022-08-26T18:32:18.898Z,25.4
2022-08-26T18:37:57.905Z,25.3
2022-08-26T18:43:10.978Z,25.3
2022-08-26T18:48:52.591Z,25.3
2022-08-26T18:54:32.441Z,25.3
2022-08-26T19:00:19.441Z,25.3
2022-08-26T19:05:55.337Z,25.3
2022-08-26T19:11:31.877Z,25.3
2022-08-26T19:17:18.799Z,25.3
2022-08-26T19:23:05.650Z,25.3
2022-08-26T19:28:56.456Z,25.3
2022-08-26T19:34:39.143Z,25.3
2022-08-26T19:40:07.392Z,25.3
2022-08-26T19:45:41.194Z,25.2
2022-08-26T19:51:25.151Z,25.3
2022-08-26T19:57:06.225Z,25.2
2022-08-26T20:02:34.497Z,25.3
2022-08-26T20:08:38.199Z,25.2
2022-08-26T20:14:22.945Z,25.2
2022-08-26T20:20:07.312Z,25.2
2022-08-26T20:26:07.940Z,25.2
2022-08-26T20:31:37.430Z,25.1
2022-08-26T20:37:04.794Z,25.2
2022-08-26T20:42:37.024Z,25.1
2022-08-26T20:48:17.361Z,25.1
2022-08-26T20:53:45.969Z,25.1
2022-08-26T20:59:27.348Z,25.1
2022-08-26T21:05:01.867Z,25.1
2022-08-26T21:10:46.302Z,25.1
2022-08-26T21:16:34.063Z,25.1
2022-08-26T21:22:14.841Z,25.1
2022-08-26T21:27:59.081Z,25.1
2022-08-26T21:33:25.659Z,25.1
2022-08-26T21:39:10.842Z,25.1
2022-08-26T21:44:58.586Z,25
2022-08-26T21:50:36.271Z,25.1
2022-08-26T21:56:18.428Z,25
2022-08-26T22:01:55.602Z,25
2022-08-26T22:07:38.861Z,25
2022-08-26T22:12:47.450Z,24.9
2022-08-26T22:17:57.064Z,25
2022-08-26T22:23:35.917Z,24.9
2022-08-26T22:29:15.818Z,24.9
2022-08-26T22:34:58.506Z,24.9
2022-08-26T22:40:53.357Z,24.9
2022-08-26T22:46:36.603Z,24.9
2022-08-26T22:52:06.403Z,24.9
2022-08-26T22:57:44.598Z,24.9
2022-08-26T23:03:36.018Z,24.9
2022-08-26T23:09:01.561Z,24.9
2022-08-26T23:14:39.198Z,24.8
2022-08-26T23:19:56.265Z,24.8
2022-08-26T23:25:24.423Z,24.9
2022-08-26T23:30:33.888Z,24.8
2022-08-26T23:35:57.541Z,24.8
2022-08-26T23:41:40.926Z,24.8
2022-08-26T23:47:23.283Z,24.8
2022-08-26T23:52:45.843Z,24.8
2022-08-26T23:58:07.460Z,24.8
